Time;durP1;ratioP1;P1;durP2;ratioP2;P2;SDS_P1;SDS_P2;PMS_P1;PMS_P2;Temp;Humidity;BMP_temperature;BMP_pressure;BME280_temperature;BME280_humidity;BME280_pressure;Samples;Min_cycle;Max_cycle;Signal;HPM_P1;HPM_P2
2022/06/29 00:00:07;;;;;;;9.23;2.63;;;18.00;98.90;;;;;;4898103;29;20060;-83
2022/06/29 00:02:33;;;;;;;7.57;3.25;;;18.00;99.00;;;;;;4898082;29;20024;-83
2022/06/29 00:04:58;;;;;;;5.10;2.72;;;18.00;99.10;;;;;;4897615;29;20388;-83
2022/06/29 00:07:24;;;;;;;7.53;2.67;;;18.00;99.30;;;;;;4898995;29;20024;-83
2022/06/29 00:09:50;;;;;;;7.63;2.80;;;18.00;99.20;;;;;;4897802;29;20405;-83
2022/06/29 00:12:16;;;;;;;7.65;3.15;;;18.00;99.50;;;;;;4881021;29;20029;-83
2022/06/29 00:14:41;;;;;;;8.85;3.72;;;17.90;99.50;;;;;;4879362;29;20048;-83
2022/06/29 00:17:11;;;;;;;9.63;3.28;;;17.90;99.80;;;;;;4887426;29;20084;-83
2022/06/29 00:19:38;;;;;;;9.70;3.83;;;17.90;99.80;;;;;;4898297;29;20029;-83
2022/06/29 00:22:04;;;;;;;10.02;3.30;;;17.80;99.50;;;;;;4898851;29;20024;-83
2022/06/29 00:24:31;;;;;;;8.10;3.22;;;17.80;99.60;;;;;;4899036;29;20032;-83
2022/06/29 00:26:57;;;;;;;10.10;3.70;;;17.80;99.80;;;;;;4898778;29;20028;-83
2022/06/29 00:29:23;;;;;;;8.27;3.00;;;17.80;99.90;;;;;;4898277;29;20109;-84
2022/06/29 00:31:48;;;;;;;9.63;2.70;;;17.60;99.90;;;;;;4897421;29;20036;-83
2022/06/29 00:34:14;;;;;;;5.82;2.72;;;17.60;99.90;;;;;;4896803;29;20036;-83
2022/06/29 00:36:40;;;;;;;7.68;2.65;;;17.60;99.90;;;;;;4897235;29;20433;-83
2022/06/29 00:39:05;;;;;;;8.27;2.50;;;17.60;99.90;;;;;;4897069;29;20029;-83
2022/06/29 00:41:31;;;;;;;6.78;3.00;;;17.60;99.90;;;;;;4898769;29;20029;-83
2022/06/29 00:43:57;;;;;;;4.20;2.28;;;17.60;99.90;;;;;;4897182;29;20059;-83
2022/06/29 00:46:22;;;;;;;8.63;2.65;;;17.50;99.90;;;;;;4898319;29;20036;-83
2022/06/29 00:48:48;;;;;;;5.85;2.38;;;17.50;99.90;;;;;;4898065;29;20037;-83
2022/06/29 00:51:17;;;;;;;5.88;2.28;;;17.50;99.90;;;;;;4898000;29;20040;-83
2022/06/29 00:53:48;;;;;;;7.43;2.30;;;17.40;99.90;;;;;;4897148;29;20036;-84
2022/06/29 00:56:15;;;;;;;4.60;2.00;;;17.40;99.90;;;;;;4896251;29;20024;-83
2022/06/29 00:58:45;;;;;;;5.85;2.00;;;17.40;99.90;;;;;;4898178;29;20033;-83
2022/06/29 01:01:12;;;;;;;7.25;2.45;;;17.30;99.90;;;;;;4898103;29;20441;-83
2022/06/29 01:03:38;;;;;;;8.48;2.45;;;17.40;99.90;;;;;;4896617;29;20039;-83
2022/06/29 01:06:04;;;;;;;5.65;2.17;;;17.40;99.90;;;;;;4897875;29;20029;-83
2022/06/29 01:08:30;;;;;;;4.47;2.25;;;17.30;99.90;;;;;;4896850;29;20461;-83
2022/06/29 01:10:55;;;;;;;9.75;1.90;;;17.20;99.90;;;;;;4898184;29;20025;-83
2022/06/29 01:13:21;;;;;;;4.75;1.80;;;17.30;99.90;;;;;;4897749;29;20076;-83
2022/06/29 01:15:47;;;;;;;3.90;1.90;;;17.20;99.90;;;;;;4897860;29;20073;-82
2022/06/29 01:18:13;;;;;;;4.30;1.90;;;17.20;99.90;;;;;;4897268;29;20103;-83
2022/06/29 01:20:38;;;;;;;5.72;2.53;;;17.10;99.90;;;;;;4897778;29;20024;-83
2022/06/29 01:23:04;;;;;;;5.78;2.30;;;17.10;99.90;;;;;;4898102;29;20103;-82
2022/06/29 01:25:30;;;;;;;13.35;2.40;;;17.10;99.90;;;;;;4880341;29;20033;-82
2022/06/29 01:27:55;;;;;;;7.85;2.10;;;17.00;99.90;;;;;;4897431;29;20052;-82
2022/06/29 01:30:21;;;;;;;5.45;2.20;;;17.10;99.90;;;;;;4897503;29;20040;-82
2022/06/29 01:32:47;;;;;;;6.40;2.55;;;17.10;99.90;;;;;;4897299;29;20044;-82
2022/06/29 01:35:16;;;;;;;7.82;2.50;;;17.00;99.90;;;;;;4896137;29;20036;-83
2022/06/29 01:37:42;;;;;;;5.72;2.40;;;17.00;99.90;;;;;;4896151;29;20035;-82
2022/06/29 01:40:10;;;;;;;6.55;2.33;;;17.00;99.90;;;;;;4897609;29;20025;-83
2022/06/29 01:42:35;;;;;;;5.63;2.28;;;16.90;99.90;;;;;;4897521;29;20064;-83
2022/06/29 01:45:01;;;;;;;9.07;2.20;;;16.90;99.90;;;;;;4897423;29;20048;-82
2022/06/29 01:47:27;;;;;;;4.63;2.20;;;16.80;99.90;;;;;;4896981;29;20480;-83
2022/06/29 01:49:53;;;;;;;5.05;2.38;;;16.80;99.90;;;;;;4896390;29;20028;-83
2022/06/29 01:52:19;;;;;;;8.23;2.30;;;16.90;99.90;;;;;;4897272;29;20060;-83
2022/06/29 01:54:44;;;;;;;10.13;2.50;;;16.80;99.90;;;;;;4896021;29;20032;-83
2022/06/29 01:57:10;;;;;;;4.57;2.13;;;16.70;99.90;;;;;;4896644;29;20041;-82
2022/06/29 01:59:36;;;;;;;4.88;2.22;;;16.60;99.90;;;;;;4897158;29;20035;-83
2022/06/29 02:02:01;;;;;;;5.25;2.28;;;16.70;99.90;;;;;;4897010;29;20025;-82
2022/06/29 02:04:27;;;;;;;5.32;1.70;;;16.70;99.90;;;;;;4896805;29;20023;-83
2022/06/29 02:06:53;;;;;;;5.07;1.90;;;16.70;99.90;;;;;;4896370;29;20054;-82
2022/06/29 02:09:20;;;;;;;6.43;2.13;;;16.70;99.90;;;;;;4896127;29;20128;-82
2022/06/29 02:11:45;;;;;;;4.30;1.92;;;16.60;99.90;;;;;;4896788;29;20568;-82
2022/06/29 02:14:12;;;;;;;6.43;2.50;;;16.70;99.90;;;;;;4897102;29;20028;-82
2022/06/29 02:16:38;;;;;;;5.85;2.00;;;16.80;99.90;;;;;;4896236;29;20076;-83
2022/06/29 02:19:03;;;;;;;6.65;2.08;;;16.60;99.90;;;;;;4896776;29;20024;-83
2022/06/29 02:21:29;;;;;;;5.55;1.90;;;16.60;99.90;;;;;;4897000;29;20039;-83
2022/06/29 02:23:55;;;;;;;5.60;1.52;;;16.50;99.90;;;;;;4897053;29;20509;-83
2022/06/29 02:26:21;;;;;;;4.00;1.60;;;16.50;99.90;;;;;;4885057;29;20081;-83
2022/06/29 02:28:46;;;;;;;3.60;1.77;;;16.50;99.90;;;;;;4894291;29;20055;-83
2022/06/29 02:36:40;;;;;;;3.33;1.60;;;16.40;99.90;;;;;;4896714;29;20039;-83
2022/06/29 02:39:06;;;;;;;3.83;2.03;;;16.40;99.90;;;;;;4883770;29;20025;-83
2022/06/29 02:41:32;;;;;;;4.72;1.73;;;16.30;99.90;;;;;;4877103;29;20081;-83
2022/06/29 02:43:58;;;;;;;9.27;2.10;;;16.40;99.90;;;;;;4877754;29;20030;-82
2022/06/29 02:46:24;;;;;;;7.97;2.55;;;16.30;99.90;;;;;;4878102;29;20077;-83
2022/06/29 02:48:49;;;;;;;7.40;2.10;;;16.40;99.90;;;;;;4892420;29;20029;-82
2022/06/29 02:51:15;;;;;;;6.00;1.70;;;16.40;99.90;;;;;;4895310;29;20039;-83
2022/06/29 02:53:41;;;;;;;5.97;1.73;;;16.30;99.90;;;;;;4896524;29;20025;-82
2022/06/29 02:56:06;;;;;;;4.90;2.20;;;16.40;99.90;;;;;;4896716;29;20103;-83
2022/06/29 02:58:33;;;;;;;7.88;1.88;;;16.40;99.90;;;;;;4896247;29;20033;-83
2022/06/29 03:00:59;;;;;;;8.20;1.70;;;16.20;99.90;;;;;;4897059;29;20104;-82
2022/06/29 03:03:25;;;;;;;3.55;1.63;;;16.20;99.90;;;;;;4895216;29;20116;-82
2022/06/29 03:05:50;;;;;;;4.68;1.95;;;16.30;99.90;;;;;;4896468;29;20032;-82
2022/06/29 03:08:16;;;;;;;5.00;2.10;;;16.20;99.90;;;;;;4896505;29;20421;-82
2022/06/29 03:10:42;;;;;;;7.88;1.83;;;16.20;99.90;;;;;;4896132;29;20512;-83
2022/06/29 03:13:07;;;;;;;6.43;1.75;;;16.20;99.90;;;;;;4896418;29;20120;-82
2022/06/29 03:15:33;;;;;;;9.77;1.77;;;16.20;99.90;;;;;;4896385;29;20103;-83
2022/06/29 03:17:59;;;;;;;4.63;1.63;;;16.10;99.90;;;;;;4896753;29;20575;-82
2022/06/29 03:20:24;;;;;;;5.25;2.13;;;16.20;99.90;;;;;;4899711;29;20432;-82
2022/06/29 03:22:50;;;;;;;6.05;1.65;;;16.20;99.90;;;;;;4898462;29;20516;-82
2022/06/29 03:25:16;;;;;;;4.18;1.70;;;16.20;99.90;;;;;;4898665;29;20484;-83
2022/06/29 03:27:43;;;;;;;6.35;1.90;;;16.10;99.90;;;;;;4899549;29;20555;-83
2022/06/29 03:30:09;;;;;;;6.57;2.00;;;16.00;99.90;;;;;;4900059;29;20602;-83
2022/06/29 03:32:35;;;;;;;6.60;1.90;;;15.90;99.90;;;;;;4899518;29;20152;-83
2022/06/29 03:35:01;;;;;;;4.53;1.70;;;15.90;99.90;;;;;;4900271;29;20115;-82
2022/06/29 03:37:26;;;;;;;4.85;1.95;;;15.90;99.90;;;;;;4884182;29;20037;-83
2022/06/29 03:39:52;;;;;;;4.95;1.80;;;15.90;99.90;;;;;;4882889;29;20029;-82
2022/06/29 03:42:18;;;;;;;6.10;2.08;;;15.90;99.90;;;;;;4899294;29;20136;-83
2022/06/29 03:44:43;;;;;;;5.00;1.67;;;15.80;99.90;;;;;;4899787;29;20037;-82
2022/06/29 03:47:09;;;;;;;8.15;1.80;;;15.90;99.90;;;;;;4899041;29;20032;-83
2022/06/29 03:49:35;;;;;;;3.30;1.50;;;15.80;99.90;;;;;;4899481;29;20096;-83
2022/06/29 03:52:02;;;;;;;7.80;1.90;;;15.70;99.90;;;;;;4898226;29;20031;-83
2022/06/29 03:54:28;;;;;;;6.88;1.48;;;15.70;99.90;;;;;;4898890;29;20036;-83
2022/06/29 03:56:54;;;;;;;5.32;2.13;;;15.70;99.90;;;;;;4898970;29;20024;-82
2022/06/29 03:59:20;;;;;;;4.28;1.90;;;15.70;99.90;;;;;;4898100;29;20420;-83
2022/06/29 04:01:46;;;;;;;4.95;1.75;;;15.60;99.90;;;;;;4899162;29;20032;-82
2022/06/29 04:04:15;;;;;;;4.93;1.80;;;15.60;99.90;;;;;;4899305;29;20400;-83
2022/06/29 04:06:40;;;;;;;7.93;2.20;;;15.60;99.90;;;;;;4898882;29;20032;-83
2022/06/29 04:09:06;;;;;;;4.88;1.80;;;15.50;99.90;;;;;;4897826;29;20047;-83
2022/06/29 04:11:52;;;;;;;3.67;1.90;;;15.50;99.90;;;;;;4898928;29;20039;-83
2022/06/29 04:14:19;;;;;;;5.47;1.75;;;15.60;99.90;;;;;;4899127;29;20036;-83
2022/06/29 04:16:46;;;;;;;5.32;1.85;;;15.60;99.90;;;;;;4897657;29;20446;-82
2022/06/29 04:19:12;;;;;;;5.63;2.38;;;15.60;99.90;;;;;;4898986;29;20132;-83
2022/06/29 04:21:38;;;;;;;8.32;2.25;;;15.50;99.90;;;;;;4898968;29;20517;-83
2022/06/29 04:24:04;;;;;;;3.40;2.10;;;15.50;99.90;;;;;;4899133;29;20039;-83
2022/06/29 04:26:30;;;;;;;5.90;2.40;;;15.50;99.90;;;;;;4890825;29;20434;-83
2022/06/29 04:28:56;;;;;;;5.45;2.10;;;15.50;99.90;;;;;;4879728;29;20052;-84
2022/06/29 04:31:21;;;;;;;5.63;2.33;;;15.50;99.90;;;;;;4880795;29;20025;-83
2022/06/29 04:33:47;;;;;;;9.30;2.10;;;15.50;99.90;;;;;;4899055;29;20039;-85
2022/06/29 04:36:13;;;;;;;4.97;2.35;;;15.50;99.90;;;;;;4898212;29;20025;-84
2022/06/29 04:38:38;;;;;;;6.00;1.75;;;15.40;99.90;;;;;;4898607;29;20040;-84
2022/06/29 04:41:04;;;;;;;3.10;2.10;;;15.50;99.90;;;;;;4897280;29;20029;-84
2022/06/29 04:43:30;;;;;;;4.60;2.20;;;15.60;99.90;;;;;;4890873;29;20152;-79
2022/06/29 04:48:41;;;;;;;6.40;2.42;;;15.60;99.90;;;;;;4896216;29;20048;-81
2022/06/29 04:51:07;;;;;;;7.63;2.28;;;15.60;99.90;;;;;;4889734;29;20021;-81
2022/06/29 04:53:33;;;;;;;4.93;2.13;;;15.60;99.90;;;;;;4892283;29;20164;-80
2022/06/29 04:55:59;;;;;;;4.13;2.20;;;15.60;99.90;;;;;;4897931;29;20028;-84
2022/06/29 04:58:24;;;;;;;5.53;2.10;;;15.50;99.90;;;;;;4898824;29;20056;-88
2022/06/29 05:00:50;;;;;;;7.30;2.20;;;15.60;99.90;;;;;;4898731;29;20024;-84
2022/06/29 05:03:15;;;;;;;5.35;2.30;;;15.60;99.90;;;;;;4896229;29;20401;-82
2022/06/29 05:05:41;;;;;;;6.57;2.28;;;15.70;99.90;;;;;;4898004;29;20505;-83
2022/06/29 05:08:07;;;;;;;4.45;2.00;;;15.70;99.90;;;;;;4896216;29;20041;-82
2022/06/29 05:10:32;;;;;;;8.25;2.25;;;15.70;99.90;;;;;;4886490;29;20052;-83
2022/06/29 05:12:58;;;;;;;8.48;2.80;;;15.80;99.90;;;;;;4893076;29;20024;-82
2022/06/29 05:15:24;;;;;;;6.30;2.40;;;15.80;99.90;;;;;;4892712;29;20029;-82
2022/06/29 05:17:49;;;;;;;3.50;1.90;;;15.90;99.90;;;;;;4887860;29;20464;-82
2022/06/29 05:20:15;;;;;;;9.05;2.40;;;15.90;99.90;;;;;;4886172;29;20025;-80
2022/06/29 05:22:41;;;;;;;6.90;2.92;;;16.00;99.90;;;;;;4886760;29;20027;-80
2022/06/29 05:25:07;;;;;;;6.57;2.63;;;16.00;99.90;;;;;;4892635;29;20024;-80
2022/06/29 05:27:33;;;;;;;7.03;2.63;;;16.00;99.90;;;;;;4891240;29;20055;-80
2022/06/29 05:29:59;;;;;;;8.02;2.47;;;16.10;99.90;;;;;;4893161;29;20485;-80
2022/06/29 05:32:25;;;;;;;7.45;2.38;;;16.10;99.90;;;;;;4895417;29;20060;-80
2022/06/29 05:34:50;;;;;;;6.85;2.47;;;16.10;99.90;;;;;;4896209;29;20508;-80
2022/06/29 05:37:16;;;;;;;5.72;2.60;;;16.20;99.90;;;;;;4884372;29;20055;-80
2022/06/29 05:39:44;;;;;;;8.55;2.60;;;16.30;99.90;;;;;;4880721;29;20025;-80
2022/06/29 05:42:12;;;;;;;7.97;2.60;;;16.30;99.90;;;;;;4896338;29;20497;-80
2022/06/29 05:44:40;;;;;;;11.38;2.70;;;16.40;99.90;;;;;;4885735;29;20397;-80
2022/06/29 05:47:07;;;;;;;5.00;2.53;;;16.40;99.90;;;;;;4896107;29;20077;-80
2022/06/29 05:49:34;;;;;;;6.88;2.53;;;16.50;99.90;;;;;;4897523;29;20041;-88
2022/06/29 05:51:59;;;;;;;8.52;2.20;;;16.60;99.90;;;;;;4897957;29;20492;-81
2022/06/29 05:54:25;;;;;;;8.80;2.45;;;16.70;99.90;;;;;;4896695;29;20065;-80
2022/06/29 05:56:51;;;;;;;10.80;2.67;;;16.80;99.90;;;;;;4890973;29;20409;-80
2022/06/29 05:59:17;;;;;;;7.97;3.03;;;16.80;99.90;;;;;;4894183;29;20029;-80
2022/06/29 06:01:42;;;;;;;7.80;2.85;;;16.80;99.90;;;;;;4885240;29;20020;-80
2022/06/29 06:04:08;;;;;;;7.78;2.70;;;16.80;99.90;;;;;;4888353;29;20126;-80
2022/06/29 06:06:34;;;;;;;9.60;3.13;;;16.90;99.90;;;;;;4891404;29;20421;-80
2022/06/29 06:09:00;;;;;;;11.95;3.55;;;16.90;99.90;;;;;;4896461;29;20051;-80
2022/06/29 06:11:26;;;;;;;12.50;3.55;;;17.00;99.90;;;;;;4888284;29;20072;-80
2022/06/29 06:13:52;;;;;;;7.13;3.28;;;17.00;99.90;;;;;;4877835;29;20035;-80
2022/06/29 06:16:18;;;;;;;10.13;3.08;;;17.10;99.90;;;;;;4880206;29;20025;-80
2022/06/29 06:18:44;;;;;;;8.55;2.80;;;17.10;99.90;;;;;;4898004;29;20024;-81
2022/06/29 06:21:12;;;;;;;9.40;2.75;;;17.10;99.90;;;;;;4897528;29;20036;-81
2022/06/29 06:23:37;;;;;;;11.82;3.00;;;17.20;99.90;;;;;;4897413;29;20033;-80
2022/06/29 06:26:03;;;;;;;7.20;2.97;;;17.20;99.90;;;;;;4897675;29;20032;-81
2022/06/29 06:28:29;;;;;;;10.13;2.35;;;17.10;99.90;;;;;;4897434;29;20417;-81
2022/06/29 06:30:54;;;;;;;12.55;2.63;;;17.20;99.90;;;;;;4896357;29;20028;-81
2022/06/29 06:33:20;;;;;;;6.50;2.20;;;17.20;99.90;;;;;;4897696;29;20400;-81
2022/06/29 06:35:46;;;;;;;9.07;2.00;;;17.30;99.90;;;;;;4897319;29;20489;-80
2022/06/29 06:38:11;;;;;;;6.65;1.95;;;17.30;99.90;;;;;;4896089;29;20033;-80
2022/06/29 06:43:21;;;;;;;7.25;2.10;;;17.40;99.90;;;;;;4896769;29;20036;-81
2022/06/29 06:45:47;;;;;;;5.97;1.90;;;17.40;99.90;;;;;;4889238;29;20017;-81
2022/06/29 06:48:13;;;;;;;8.90;2.58;;;17.50;99.90;;;;;;4879748;29;20044;-81
2022/06/29 06:50:38;;;;;;;5.97;1.63;;;17.50;99.90;;;;;;4893783;29;20115;-80
2022/06/29 06:53:04;;;;;;;5.70;2.00;;;17.50;99.90;;;;;;4897446;29;20033;-80
2022/06/29 06:55:30;;;;;;;7.30;2.00;;;17.50;99.90;;;;;;4900244;29;20052;-79
2022/06/29 06:57:55;;;;;;;9.77;2.65;;;17.60;99.90;;;;;;4897189;29;20021;-80
2022/06/29 07:00:22;;;;;;;6.32;2.22;;;17.60;99.90;;;;;;4893433;29;20115;-79
2022/06/29 07:02:47;;;;;;;10.63;2.47;;;17.70;99.90;;;;;;4889308;29;20107;-79
2022/06/29 07:05:13;;;;;;;6.72;2.00;;;17.70;99.90;;;;;;4895895;29;20112;-78
2022/06/29 07:07:39;;;;;;;9.48;2.25;;;17.80;99.90;;;;;;4891498;29;20037;-79
2022/06/29 07:10:05;;;;;;;9.50;1.70;;;17.90;99.90;;;;;;4891841;29;20092;-78
2022/06/29 07:12:31;;;;;;;7.85;2.15;;;17.90;99.90;;;;;;4890784;29;20036;-78
2022/06/29 07:14:57;;;;;;;10.70;2.28;;;18.00;99.90;;;;;;4896157;29;20029;-78
2022/06/29 07:17:22;;;;;;;4.53;1.77;;;18.10;99.90;;;;;;4894872;29;20040;-78
2022/06/29 07:19:48;;;;;;;10.85;3.15;;;18.20;99.90;;;;;;4891687;29;20031;-78
2022/06/29 07:22:14;;;;;;;7.80;2.45;;;18.20;99.90;;;;;;4894553;29;20036;-78
2022/06/29 07:24:39;;;;;;;5.20;2.25;;;18.30;99.90;;;;;;4899470;29;20017;-78
2022/06/29 07:27:05;;;;;;;3.55;1.92;;;18.40;99.90;;;;;;4896642;29;20041;-78
2022/06/29 07:29:31;;;;;;;5.75;1.77;;;18.40;99.90;;;;;;4891872;29;20048;-78
2022/06/29 07:31:56;;;;;;;10.27;2.92;;;18.40;99.90;;;;;;4897804;29;20041;-78
2022/06/29 07:34:22;;;;;;;5.55;1.90;;;18.50;99.90;;;;;;4898407;29;20493;-78
2022/06/29 07:36:48;;;;;;;10.63;2.20;;;18.60;99.90;;;;;;4899283;29;20033;-78
2022/06/29 07:39:13;;;;;;;5.32;1.70;;;18.70;99.90;;;;;;4898402;29;20027;-79
2022/06/29 07:41:41;;;;;;;6.03;2.13;;;18.70;99.90;;;;;;4899556;29;20036;-79
2022/06/29 07:44:07;;;;;;;13.10;2.42;;;18.80;99.90;;;;;;4899762;29;20115;-79
2022/06/29 07:46:32;;;;;;;6.75;2.28;;;18.90;99.90;;;;;;4896940;29;20463;-79
2022/06/29 07:48:58;;;;;;;8.05;2.00;;;18.90;99.90;;;;;;4897929;29;20032;-79
2022/06/29 07:51:24;;;;;;;6.85;2.03;;;18.90;99.90;;;;;;4896778;29;20036;-79
2022/06/29 07:53:50;;;;;;;8.25;1.95;;;18.90;99.90;;;;;;4886656;29;20485;-80
2022/06/29 09:28:36;;;;;;;4.88;1.58;;;26.10;79.40;;;;;;5257574;23;20567;-82
2022/06/29 09:31:01;;;;;;;3.33;1.60;;;26.40;78.90;;;;;;4914849;29;20400;-76
2022/06/29 09:33:29;;;;;;;5.75;1.80;;;26.40;76.70;;;;;;4916678;29;20064;-76
2022/06/29 09:36:13;;;;;;;3.15;1.20;;;26.60;78.50;;;;;;4915759;29;20119;-76
2022/06/29 09:38:39;;;;;;;4.45;1.35;;;26.60;76.40;;;;;;4915352;29;20088;-75
2022/06/29 09:41:08;;;;;;;6.68;1.45;;;26.30;75.20;;;;;;4914035;29;20024;-80
2022/06/29 09:43:45;;;;;;;5.68;1.88;;;26.20;75.70;;;;;;4913340;29;20377;-82
2022/06/29 09:46:15;;;;;;;7.07;1.80;;;26.60;76.00;;;;;;4916363;29;20103;-82
2022/06/29 09:48:42;;;;;;;6.05;1.40;;;26.40;74.10;;;;;;4916606;29;20028;-83
2022/06/29 09:53:57;;;;;;;4.18;1.27;;;26.90;74.20;;;;;;4915777;29;20072;-84
2022/06/29 09:56:24;;;;;;;3.17;1.33;;;27.00;73.60;;;;;;4914663;29;20043;-85
2022/06/29 09:58:53;;;;;;;5.25;1.85;;;27.00;72.20;;;;;;4909034;29;20508;-84
2022/06/29 10:04:05;;;;;;;4.05;1.50;;;27.10;72.40;;;;;;4916467;29;20034;-77
2022/06/29 10:06:31;;;;;;;5.60;1.27;;;26.70;71.90;;;;;;4914601;29;20032;-78
2022/06/29 10:08:58;;;;;;;6.20;1.67;;;27.00;75.30;;;;;;4908545;29;20068;-78
2022/06/29 10:14:44;;;;;;;4.72;1.55;;;26.80;71.90;;;;;;4903607;29;20036;-77
2022/06/29 10:17:49;;;;;;;3.75;1.40;;;26.80;71.60;;;;;;4906957;29;20036;-77
2022/06/29 10:20:39;;;;;;;2.97;1.20;;;27.30;71.50;;;;;;4902010;29;20064;-79
2022/06/29 10:23:04;;;;;;;6.43;1.65;;;27.50;69.00;;;;;;4896238;29;20037;-76
2022/06/29 10:25:31;;;;;;;3.42;1.50;;;27.00;70.00;;;;;;4903681;29;20040;-77
2022/06/29 10:28:16;;;;;;;6.65;1.60;;;27.10;69.00;;;;;;4915062;29;20507;-77
2022/06/29 10:30:43;;;;;;;6.18;1.33;;;27.60;69.60;;;;;;4915882;29;20040;-78
2022/06/29 10:33:36;;;;;;;5.10;1.52;;;27.40;67.30;;;;;;4921314;29;20036;-76
2022/06/29 10:36:09;;;;;;;3.10;1.52;;;27.70;68.00;;;;;;4924327;29;20032;-78
2022/06/29 10:38:57;;;;;;;4.15;1.50;;;27.50;67.10;;;;;;4920640;29;20036;-82
2022/06/29 10:44:07;;;;;;;3.17;1.45;;;28.00;65.80;;;;;;4925402;29;20091;-77
2022/06/29 10:46:57;;;;;;;5.32;1.60;;;27.40;67.50;;;;;;4926722;29;20023;-76
2022/06/29 10:49:24;;;;;;;7.22;1.67;;;27.40;66.40;;;;;;4925250;29;20054;-77
2022/06/29 10:51:50;;;;;;;5.80;1.55;;;27.80;66.60;;;;;;4920061;29;20081;-76
2022/06/29 10:54:27;;;;;;;3.08;1.40;;;27.80;65.50;;;;;;4916794;29;20028;-76
2022/06/29 10:56:53;;;;;;;7.28;1.50;;;27.80;67.00;;;;;;4916839;29;20064;-76
2022/06/29 10:59:36;;;;;;;5.55;1.50;;;27.90;66.40;;;;;;4924280;29;20028;-77
2022/06/29 11:02:13;;;;;;;3.40;1.50;;;28.00;66.40;;;;;;4931042;29;20035;-77
2022/06/29 11:04:40;;;;;;;4.63;1.67;;;27.70;64.50;;;;;;4922554;29;20082;-79
2022/06/29 11:12:55;;;;;;;4.10;1.50;;;28.00;62.70;;;;;;4928601;29;20079;-77
2022/06/29 11:15:48;;;;;;;4.88;1.88;;;28.20;62.30;;;;;;4918899;29;20036;-77
2022/06/29 11:18:22;;;;;;;7.38;1.45;;;28.20;61.30;;;;;;4918558;29;20028;-76
2022/06/29 11:20:50;;;;;;;3.97;1.70;;;28.40;63.40;;;;;;4922674;29;20107;-80
2022/06/29 11:23:21;;;;;;;3.63;1.27;;;28.00;63.20;;;;;;4918326;29;20024;-76
2022/06/29 11:25:48;;;;;;;3.55;1.30;;;28.00;64.20;;;;;;4915590;29;20056;-76
2022/06/29 11:28:17;;;;;;;3.13;1.50;;;27.60;62.70;;;;;;4920911;29;20048;-77
2022/06/29 11:31:02;;;;;;;3.58;1.48;;;27.80;62.80;;;;;;4924572;29;20154;-76
2022/06/29 11:33:41;;;;;;;4.15;1.25;;;28.10;60.50;;;;;;4918658;29;20036;-77
2022/06/29 11:36:10;;;;;;;6.55;1.40;;;28.20;60.50;;;;;;4918865;29;20459;-76
2022/06/29 11:38:40;;;;;;;3.88;1.20;;;28.40;59.50;;;;;;4922081;29;20043;-77
2022/06/29 11:41:25;;;;;;;3.08;1.23;;;28.70;59.70;;;;;;4927287;29;20086;-81
2022/06/29 11:44:06;;;;;;;2.92;1.13;;;28.80;60.10;;;;;;4927681;29;20022;-76
2022/06/29 11:46:36;;;;;;;7.93;1.80;;;28.80;59.80;;;;;;4920256;29;20024;-77
2022/06/29 11:51:57;;;;;;;4.82;1.33;;;28.90;60.70;;;;;;4919375;29;20023;-76
2022/06/29 11:54:40;;;;;;;3.15;1.40;;;29.00;59.70;;;;;;4915400;29;20028;-76
2022/06/29 11:57:12;;;;;;;5.70;1.75;;;29.10;59.30;;;;;;4922199;29;20496;-75
2022/06/29 11:59:39;;;;;;;;;;;29.00;60.30;;;;;;4924262;29;20032;-76
2022/06/29 12:02:05;;;;;;;4.13;1.40;;;29.40;59.70;;;;;;4912731;29;20776;-79
2022/06/29 12:04:35;;;;;;;2.78;1.08;;;29.20;58.50;;;;;;4919552;29;20031;-77
2022/06/29 12:07:06;;;;;;;4.43;1.45;;;29.40;58.40;;;;;;4927301;29;20020;-76
2022/06/29 12:09:33;;;;;;;4.47;1.50;;;29.40;58.60;;;;;;4917912;29;20021;-75
2022/06/29 12:11:59;;;;;;;2.88;1.58;;;29.50;59.30;;;;;;4916709;29;20107;-75
2022/06/29 12:14:24;;;;;;;5.70;1.50;;;28.90;59.90;;;;;;4917239;29;20103;-76
2022/06/29 12:16:50;;;;;;;4.90;1.40;;;29.50;60.80;;;;;;4917625;29;20457;-76
2022/06/29 12:19:16;;;;;;;2.90;1.30;;;29.30;58.40;;;;;;4923064;29;20028;-75
2022/06/29 12:21:41;;;;;;;4.35;1.58;;;29.50;59.10;;;;;;4922666;29;20112;-77
2022/06/29 12:24:07;;;;;;;4.07;1.42;;;29.70;60.30;;;;;;4922091;29;20024;-76
2022/06/29 12:26:33;;;;;;;4.00;1.23;;;29.80;58.90;;;;;;4917281;29;20038;-75
2022/06/29 12:28:58;;;;;;;3.15;1.30;;;29.60;57.30;;;;;;4917757;29;20052;-75
2022/06/29 12:31:24;;;;;;;4.82;1.40;;;29.30;56.50;;;;;;4923126;29;20039;-75
2022/06/29 12:33:50;;;;;;;4.20;1.35;;;29.10;56.50;;;;;;4917331;29;20024;-75
2022/06/29 12:36:15;;;;;;;5.57;1.25;;;29.30;56.70;;;;;;4918071;29;20027;-75
2022/06/29 12:38:41;;;;;;;3.63;1.00;;;29.50;59.70;;;;;;4928776;29;20034;-75
2022/06/29 12:41:07;;;;;;;2.40;1.13;;;29.50;57.80;;;;;;4924682;29;20095;-76
2022/06/29 12:43:33;;;;;;;4.07;1.40;;;29.70;56.40;;;;;;4913461;29;20020;-76
2022/06/29 12:45:59;;;;;;;5.20;1.15;;;29.60;55.70;;;;;;4917031;29;20540;-75
2022/06/29 12:48:25;;;;;;;3.95;1.25;;;29.60;57.00;;;;;;4917146;29;20504;-75
2022/06/29 12:50:51;;;;;;;8.60;1.45;;;29.50;57.10;;;;;;4916291;29;20027;-75
2022/06/29 12:53:16;;;;;;;4.72;1.42;;;29.70;55.50;;;;;;4918600;29;20376;-75
2022/06/29 12:55:42;;;;;;;2.88;1.20;;;29.90;57.10;;;;;;4917184;29;20114;-75
2022/06/29 12:58:08;;;;;;;5.78;1.27;;;30.00;56.10;;;;;;4927754;29;20046;-76
2022/06/29 13:00:35;;;;;;;3.95;1.35;;;29.60;54.80;;;;;;4930098;29;20151;-75
2022/06/29 13:03:01;;;;;;;6.68;1.60;;;29.50;55.30;;;;;;4922320;29;20094;-75
2022/06/29 13:05:26;;;;;;;6.43;1.40;;;28.90;57.00;;;;;;4924448;29;20024;-75
2022/06/29 13:07:52;;;;;;;2.78;1.30;;;29.50;56.60;;;;;;4924127;29;20039;-75
2022/06/29 13:10:18;;;;;;;6.00;1.27;;;29.70;55.40;;;;;;4916742;29;20035;-75
2022/06/29 13:12:43;;;;;;;5.13;1.30;;;29.10;56.20;;;;;;4916177;29;20106;-75
2022/06/29 13:15:09;;;;;;;2.88;1.27;;;29.20;55.50;;;;;;4915314;29;20029;-75
2022/06/29 13:17:35;;;;;;;3.38;1.10;;;29.40;55.00;;;;;;4918456;29;20059;-75
2022/06/29 13:20:01;;;;;;;3.53;1.30;;;29.50;54.90;;;;;;4920754;29;20028;-75
2022/06/29 13:22:26;;;;;;;2.80;1.00;;;29.50;56.60;;;;;;4921420;29;20487;-75
2022/06/29 13:24:53;;;;;;;3.40;1.17;;;29.60;54.20;;;;;;4911235;29;20404;-75
2022/06/29 13:27:19;;;;;;;4.30;1.40;;;29.60;53.80;;;;;;4917293;29;20036;-74
2022/06/29 13:29:45;;;;;;;3.83;1.42;;;29.70;53.40;;;;;;4922904;29;20035;-74
2022/06/29 13:32:10;;;;;;;5.13;1.33;;;29.50;54.30;;;;;;4916341;29;20032;-75
2022/06/29 13:34:37;;;;;;;2.85;1.10;;;29.50;53.60;;;;;;4933223;29;20035;-74
2022/06/29 13:37:02;;;;;;;4.00;1.42;;;29.50;54.40;;;;;;4918241;29;20491;-75
2022/06/29 13:39:28;;;;;;;5.53;1.40;;;29.50;54.10;;;;;;4926508;29;20099;-75
2022/06/29 13:41:59;;;;;;;3.90;1.00;;;29.10;53.00;;;;;;4915671;29;20044;-75
2022/06/29 13:44:25;;;;;;;3.42;1.42;;;29.40;54.10;;;;;;4915687;29;20028;-75
2022/06/29 13:46:50;;;;;;;3.95;1.42;;;29.30;54.40;;;;;;4916264;29;20026;-75
2022/06/29 13:49:16;;;;;;;2.47;1.02;;;29.70;55.90;;;;;;4915745;29;20028;-75
2022/06/29 13:51:42;;;;;;;6.22;1.40;;;29.60;52.00;;;;;;4915741;29;20028;-76
2022/06/29 13:54:07;;;;;;;8.57;1.45;;;29.40;51.60;;;;;;4915900;29;20088;-76
2022/06/29 13:56:33;;;;;;;3.63;1.40;;;28.70;52.80;;;;;;4914378;29;20035;-75
2022/06/29 13:58:59;;;;;;;2.88;0.95;;;28.70;55.00;;;;;;4914580;29;20051;-76
2022/06/29 14:01:24;;;;;;;4.68;0.90;;;29.30;52.50;;;;;;4914771;29;20111;-76
2022/06/29 14:03:50;;;;;;;3.53;1.40;;;29.20;51.90;;;;;;4915200;29;20035;-75
2022/06/29 14:06:16;;;;;;;3.80;1.20;;;29.40;51.30;;;;;;4915485;29;20472;-75
2022/06/29 14:08:42;;;;;;;3.45;1.55;;;29.50;50.90;;;;;;4916273;29;20028;-75
2022/06/29 14:11:08;;;;;;;5.38;1.30;;;29.50;52.20;;;;;;4915971;29;20408;-75
2022/06/29 14:13:36;;;;;;;8.65;1.70;;;29.80;53.30;;;;;;4916593;29;20107;-75
2022/06/29 14:16:02;;;;;;;2.88;1.30;;;29.70;52.50;;;;;;4916300;29;20032;-76
2022/06/29 14:18:28;;;;;;;3.28;1.10;;;29.70;51.60;;;;;;4915306;29;20519;-75
2022/06/29 14:20:56;;;;;;;3.17;1.13;;;29.70;53.30;;;;;;4915760;29;20035;-75
2022/06/29 14:23:22;;;;;;;4.03;1.17;;;29.50;50.90;;;;;;4916185;29;20032;-75
2022/06/29 14:25:51;;;;;;;3.90;1.33;;;29.50;51.30;;;;;;4916475;29;20024;-75
2022/06/29 14:28:18;;;;;;;5.10;1.35;;;29.50;51.70;;;;;;4914875;29;20056;-75
2022/06/29 14:30:45;;;;;;;4.90;1.20;;;29.70;52.50;;;;;;4916048;29;20040;-75
2022/06/29 14:33:11;;;;;;;5.72;1.27;;;29.60;50.50;;;;;;4916346;29;20119;-76
2022/06/29 14:35:36;;;;;;;6.15;0.95;;;29.60;51.10;;;;;;4915914;29;20039;-75
2022/06/29 14:38:03;;;;;;;5.53;1.15;;;29.80;48.90;;;;;;4914142;29;20028;-74
2022/06/29 14:40:30;;;;;;;4.35;1.13;;;29.70;50.30;;;;;;4914665;29;20032;-75
2022/06/29 14:42:56;;;;;;;3.42;1.30;;;29.80;49.90;;;;;;4916565;29;20429;-74
2022/06/29 14:45:21;;;;;;;3.42;1.20;;;29.60;48.60;;;;;;4915975;29;20103;-75
2022/06/29 14:47:48;;;;;;;4.72;1.40;;;28.90;52.70;;;;;;4914651;29;20380;-75